Altona, NY (12910)

7:36 PM EDT on August 02, 2015 (GMT -0400)
Ellenburg Depot | | Change Station
CLOSE
Current Station
Personal Weather Station
Location: Ellenburg Depot, NY
Elevation: 1000 ft
Nearby Weather Stations

Elev 1000 ft 44.91 °N, 73.82 °W | Updated 15 seconds ago

Partly Cloudy
Partly Cloudy
72.7 °F
Feels Like 76 °F
N
0.0
Wind Variable Wind from SW
Gusts 1.0 mph

Today
High -- | Low -- °F
--% Chance of Precip.
Yesterday
High -- | Low -- °F
Precip. -- in
5:41 AM 8:19 PM
Waning Gibbous, 91% visible
Pressure 29.75 in
Visibility 10.0 miles
Clouds Few 8000 ft
Heat Index 76 °F
Dew Point 59 °F
Humidity 62%
Rainfall 0.00 in
Snow Depth Not available.
UV 1 out of 12
Pollen 5.90 out of 12
Air Quality Not available.
Flu Activity Not available.
METAR KPBG 022253Z AUTO 16006KT 10SM FEW080 26/18 A2975 RMK AO2 SLP075 T02610178

More Conditions Fewer Conditions

Pressure 29.75 in
Visibility 10.0 miles
Clouds Few 8000 ft
Heat Index 76 °F
Dew Point 59 °F
Humidity 62%
Rainfall 0.00 in
Snow Depth Not available.
UV 1 out of 12
Pollen 5.90 out of 12
Air Quality Not available.
Flu Activity Not available.
METAR KPBG 022253Z AUTO 16006KT 10SM FEW080 26/18 A2975 RMK AO2 SLP075 T02610178

More Conditions Fewer Conditions

10-Day Weather Forecast

×

Almanac

Astronomy

Aug. 02, 2015 Rise Set
Actual Time
Civil Twilight
Nautical Twilight
Astronomical Twilight
Moon
Length of Visible Light
Length of Day
Tomorrow will be .
, % of the Moon is Illuminated

Today's Extremes

State Highs State Lows

Community

WunderPhotos

Upload Photos

1,843,426 photos uploaded!

WunderBlogs® & News

Nearby

Air Quality

  Air Quality AQ Index Pollutant
Not available.

Snow Depth

Station Depth Elevation

Earthquake Activity

City Distance Mag. Time & Date
Minimum magnitude displayed is 2.5.

Coastal Water Temperatures

Place Temperature

Stations

Nearby Weather Stations

Station Location Temp. Windchill Dew Point Humidity Wind Precip. Elev Updated Type